sensor_id;sensor_type;location;lat;lon;timestamp;temperature;humidity
20929;DHT22;21895;47.072;15.132;2023-07-31T00:01:31;16.20;99.90
20929;DHT22;21895;47.072;15.132;2023-07-31T00:03:58;16.20;99.90
20929;DHT22;21895;47.072;15.132;2023-07-31T00:06:25;16.20;99.90
20929;DHT22;21895;47.072;15.132;2023-07-31T00:08:51;16.30;99.90
20929;DHT22;21895;47.072;15.132;2023-07-31T00:11:18;16.30;99.90
20929;DHT22;21895;47.072;15.132;2023-07-31T00:13:44;16.30;99.90
20929;DHT22;21895;47.072;15.132;2023-07-31T00:16:11;16.20;99.90
20929;DHT22;21895;47.072;15.132;2023-07-31T00:18:38;16.10;99.90
20929;DHT22;21895;47.072;15.132;2023-07-31T00:21:04;16.20;99.90
20929;DHT22;21895;47.072;15.132;2023-07-31T00:23:31;16.10;99.90
20929;DHT22;21895;47.072;15.132;2023-07-31T00:25:57;16.10;99.90
20929;DHT22;21895;47.072;15.132;2023-07-31T00:28:24;16.10;99.90
20929;DHT22;21895;47.072;15.132;2023-07-31T00:30:50;16.10;99.90
20929;DHT22;21895;47.072;15.132;2023-07-31T00:33:17;16.20;99.90
20929;DHT22;21895;47.072;15.132;2023-07-31T00:35:43;16.20;99.90
20929;DHT22;21895;47.072;15.132;2023-07-31T00:38:10;16.20;99.90
20929;DHT22;21895;47.072;15.132;2023-07-31T00:40:37;16.10;99.90
20929;DHT22;21895;47.072;15.132;2023-07-31T00:43:04;16.00;99.90
20929;DHT22;21895;47.072;15.132;2023-07-31T00:45:31;16.10;99.90
20929;DHT22;21895;47.072;15.132;2023-07-31T00:47:59;16.10;99.90
20929;DHT22;21895;47.072;15.132;2023-07-31T00:50:27;16.10;99.90
20929;DHT22;21895;47.072;15.132;2023-07-31T00:52:54;16.10;99.90
20929;DHT22;21895;47.072;15.132;2023-07-31T00:55:21;16.10;99.90
20929;DHT22;21895;47.072;15.132;2023-07-31T00:57:48;16.00;99.90
20929;DHT22;21895;47.072;15.132;2023-07-31T01:00:16;16.00;99.90
20929;DHT22;21895;47.072;15.132;2023-07-31T01:02:43;16.00;99.90
20929;DHT22;21895;47.072;15.132;2023-07-31T01:05:10;16.20;99.90
20929;DHT22;21895;47.072;15.132;2023-07-31T01:07:49;16.10;99.90
20929;DHT22;21895;47.072;15.132;2023-07-31T01:10:27;16.00;99.90
20929;DHT22;21895;47.072;15.132;2023-07-31T01:13:00;16.00;99.90
20929;DHT22;21895;47.072;15.132;2023-07-31T01:15:29;15.90;99.90
20929;DHT22;21895;47.072;15.132;2023-07-31T01:17:55;15.90;99.90
20929;DHT22;21895;47.072;15.132;2023-07-31T01:20:23;15.90;99.90
20929;DHT22;21895;47.072;15.132;2023-07-31T01:28:27;15.90;99.90
20929;DHT22;21895;47.072;15.132;2023-07-31T01:31:23;15.80;99.90
20929;DHT22;21895;47.072;15.132;2023-07-31T01:33:56;15.90;99.90
20929;DHT22;21895;47.072;15.132;2023-07-31T01:36:26;16.00;99.90
20929;DHT22;21895;47.072;15.132;2023-07-31T01:38:58;15.90;99.90
20929;DHT22;21895;47.072;15.132;2023-07-31T01:41:26;15.90;99.90
20929;DHT22;21895;47.072;15.132;2023-07-31T01:43:53;15.90;99.90
20929;DHT22;21895;47.072;15.132;2023-07-31T01:46:19;15.80;99.90
20929;DHT22;21895;47.072;15.132;2023-07-31T01:48:46;15.60;99.90
20929;DHT22;21895;47.072;15.132;2023-07-31T01:51:12;15.70;99.90
20929;DHT22;21895;47.072;15.132;2023-07-31T01:53:39;15.70;99.90
20929;DHT22;21895;47.072;15.132;2023-07-31T01:56:06;15.60;99.90
20929;DHT22;21895;47.072;15.132;2023-07-31T01:58:32;15.70;99.90
20929;DHT22;21895;47.072;15.132;2023-07-31T02:00:59;15.60;99.90
20929;DHT22;21895;47.072;15.132;2023-07-31T02:03:25;15.50;99.90
20929;DHT22;21895;47.072;15.132;2023-07-31T02:05:54;15.60;99.90
20929;DHT22;21895;47.072;15.132;2023-07-31T02:08:20;15.50;99.90
20929;DHT22;21895;47.072;15.132;2023-07-31T02:10:47;15.60;99.90
20929;DHT22;21895;47.072;15.132;2023-07-31T02:13:13;15.50;99.90
20929;DHT22;21895;47.072;15.132;2023-07-31T02:15:40;15.50;99.90
20929;DHT22;21895;47.072;15.132;2023-07-31T02:18:06;15.50;99.90
20929;DHT22;21895;47.072;15.132;2023-07-31T02:20:34;15.40;99.90
20929;DHT22;21895;47.072;15.132;2023-07-31T02:23:01;15.50;99.90
20929;DHT22;21895;47.072;15.132;2023-07-31T02:25:28;15.50;99.90
20929;DHT22;21895;47.072;15.132;2023-07-31T02:27:55;15.40;99.90
20929;DHT22;21895;47.072;15.132;2023-07-31T02:30:21;15.40;99.90
20929;DHT22;21895;47.072;15.132;2023-07-31T02:32:48;15.30;99.90
20929;DHT22;21895;47.072;15.132;2023-07-31T02:35:14;15.30;99.90
20929;DHT22;21895;47.072;15.132;2023-07-31T02:37:44;15.30;99.90
20929;DHT22;21895;47.072;15.132;2023-07-31T02:40:11;15.30;99.90
20929;DHT22;21895;47.072;15.132;2023-07-31T02:42:38;15.60;99.90
20929;DHT22;21895;47.072;15.132;2023-07-31T02:45:05;15.60;99.90
20929;DHT22;21895;47.072;15.132;2023-07-31T02:47:33;15.50;99.90
20929;DHT22;21895;47.072;15.132;2023-07-31T02:49:59;15.60;99.90
20929;DHT22;21895;47.072;15.132;2023-07-31T02:52:26;15.50;99.90
20929;DHT22;21895;47.072;15.132;2023-07-31T02:54:52;15.40;99.90
20929;DHT22;21895;47.072;15.132;2023-07-31T02:57:19;15.40;99.90
20929;DHT22;21895;47.072;15.132;2023-07-31T02:59:45;15.50;99.90
20929;DHT22;21895;47.072;15.132;2023-07-31T03:02:12;15.60;99.90
20929;DHT22;21895;47.072;15.132;2023-07-31T03:04:39;15.60;99.90
20929;DHT22;21895;47.072;15.132;2023-07-31T03:07:09;15.70;99.90
20929;DHT22;21895;47.072;15.132;2023-07-31T03:09:35;15.50;99.90
20929;DHT22;21895;47.072;15.132;2023-07-31T03:12:02;15.40;99.90
20929;DHT22;21895;47.072;15.132;2023-07-31T03:14:29;15.20;99.90
20929;DHT22;21895;47.072;15.132;2023-07-31T03:16:56;15.10;99.90
20929;DHT22;21895;47.072;15.132;2023-07-31T03:19:23;15.00;99.90
20929;DHT22;21895;47.072;15.132;2023-07-31T03:21:49;15.00;99.90
20929;DHT22;21895;47.072;15.132;2023-07-31T03:24:16;14.90;99.90
20929;DHT22;21895;47.072;15.132;2023-07-31T03:26:42;14.90;99.90
20929;DHT22;21895;47.072;15.132;2023-07-31T03:29:09;15.00;99.90
20929;DHT22;21895;47.072;15.132;2023-07-31T03:31:35;15.00;99.90
20929;DHT22;21895;47.072;15.132;2023-07-31T03:34:02;15.10;99.90
20929;DHT22;21895;47.072;15.132;2023-07-31T03:36:29;15.10;99.90
20929;DHT22;21895;47.072;15.132;2023-07-31T03:38:55;15.20;99.90
20929;DHT22;21895;47.072;15.132;2023-07-31T03:41:22;15.30;99.90
20929;DHT22;21895;47.072;15.132;2023-07-31T03:43:50;15.30;99.90
20929;DHT22;21895;47.072;15.132;2023-07-31T03:46:24;15.20;99.90
20929;DHT22;21895;47.072;15.132;2023-07-31T03:48:54;15.10;99.90
20929;DHT22;21895;47.072;15.132;2023-07-31T03:51:20;15.10;99.90
20929;DHT22;21895;47.072;15.132;2023-07-31T03:53:47;15.10;99.90
20929;DHT22;21895;47.072;15.132;2023-07-31T03:56:13;15.10;99.90
20929;DHT22;21895;47.072;15.132;2023-07-31T03:58:40;15.20;99.90
20929;DHT22;21895;47.072;15.132;2023-07-31T04:01:06;15.30;99.90
20929;DHT22;21895;47.072;15.132;2023-07-31T04:03:33;15.20;99.90
20929;DHT22;21895;47.072;15.132;2023-07-31T04:06:00;15.30;99.90
20929;DHT22;21895;47.072;15.132;2023-07-31T04:08:26;15.40;99.90
20929;DHT22;21895;47.072;15.132;2023-07-31T04:10:53;15.40;99.90
20929;DHT22;21895;47.072;15.132;2023-07-31T04:13:21;15.40;99.90
20929;DHT22;21895;47.072;15.132;2023-07-31T04:15:51;15.30;99.90
20929;DHT22;21895;47.072;15.132;2023-07-31T04:18:17;15.30;99.90
20929;DHT22;21895;47.072;15.132;2023-07-31T04:20:44;15.20;99.90
20929;DHT22;21895;47.072;15.132;2023-07-31T04:23:11;15.20;99.90
20929;DHT22;21895;47.072;15.132;2023-07-31T04:25:37;15.20;99.90
20929;DHT22;21895;47.072;15.132;2023-07-31T04:28:04;15.20;99.90
20929;DHT22;21895;47.072;15.132;2023-07-31T04:30:31;15.30;99.90
20929;DHT22;21895;47.072;15.132;2023-07-31T04:32:57;15.30;99.90
20929;DHT22;21895;47.072;15.132;2023-07-31T04:35:24;15.30;99.90
20929;DHT22;21895;47.072;15.132;2023-07-31T04:37:50;15.30;99.90
20929;DHT22;21895;47.072;15.132;2023-07-31T04:40:17;15.30;99.90
20929;DHT22;21895;47.072;15.132;2023-07-31T04:42:44;15.20;99.90
20929;DHT22;21895;47.072;15.132;2023-07-31T04:45:10;15.20;99.90
20929;DHT22;21895;47.072;15.132;2023-07-31T04:47:37;15.30;99.90
20929;DHT22;21895;47.072;15.132;2023-07-31T04:50:04;15.30;99.90
20929;DHT22;21895;47.072;15.132;2023-07-31T04:52:31;15.40;99.90
20929;DHT22;21895;47.072;15.132;2023-07-31T04:54:58;15.40;99.90
20929;DHT22;21895;47.072;15.132;2023-07-31T04:57:24;15.40;99.90
20929;DHT22;21895;47.072;15.132;2023-07-31T04:59:51;15.50;99.90
20929;DHT22;21895;47.072;15.132;2023-07-31T05:02:17;16.00;99.90
20929;DHT22;21895;47.072;15.132;2023-07-31T05:04:44;16.80;99.90
20929;DHT22;21895;47.072;15.132;2023-07-31T05:07:10;17.30;99.90
20929;DHT22;21895;47.072;15.132;2023-07-31T05:09:37;17.50;99.90
20929;DHT22;21895;47.072;15.132;2023-07-31T05:12:05;17.50;99.90
20929;DHT22;21895;47.072;15.132;2023-07-31T05:14:32;17.60;99.90
20929;DHT22;21895;47.072;15.132;2023-07-31T05:16:59;17.40;99.90
20929;DHT22;21895;47.072;15.132;2023-07-31T05:19:25;17.40;99.90
20929;DHT22;21895;47.072;15.132;2023-07-31T05:21:52;17.50;99.90
20929;DHT22;21895;47.072;15.132;2023-07-31T05:24:18;17.70;99.90
20929;DHT22;21895;47.072;15.132;2023-07-31T05:26:45;18.10;99.90
20929;DHT22;21895;47.072;15.132;2023-07-31T05:29:11;18.30;99.90
20929;DHT22;21895;47.072;15.132;2023-07-31T05:31:38;18.40;99.90
20929;DHT22;21895;47.072;15.132;2023-07-31T05:34:05;18.50;99.90
20929;DHT22;21895;47.072;15.132;2023-07-31T05:36:31;18.50;99.90
20929;DHT22;21895;47.072;15.132;2023-07-31T05:38:58;18.50;99.90
20929;DHT22;21895;47.072;15.132;2023-07-31T05:41:25;18.70;99.90
20929;DHT22;21895;47.072;15.132;2023-07-31T05:43:51;18.80;99.90
20929;DHT22;21895;47.072;15.132;2023-07-31T05:46:18;18.90;99.90
20929;DHT22;21895;47.072;15.132;2023-07-31T05:48:44;19.10;99.90
20929;DHT22;21895;47.072;15.132;2023-07-31T05:51:11;19.30;99.90
20929;DHT22;21895;47.072;15.132;2023-07-31T05:53:37;19.40;99.90
20929;DHT22;21895;47.072;15.132;2023-07-31T05:56:06;19.70;99.90
20929;DHT22;21895;47.072;15.132;2023-07-31T05:58:33;19.80;99.90
20929;DHT22;21895;47.072;15.132;2023-07-31T06:00:59;20.00;99.90
20929;DHT22;21895;47.072;15.132;2023-07-31T06:03:26;19.80;99.90
20929;DHT22;21895;47.072;15.132;2023-07-31T06:05:53;19.80;99.90
20929;DHT22;21895;47.072;15.132;2023-07-31T06:08:19;19.80;99.90
20929;DHT22;21895;47.072;15.132;2023-07-31T06:10:46;19.70;99.90
20929;DHT22;21895;47.072;15.132;2023-07-31T06:13:12;19.70;99.90
20929;DHT22;21895;47.072;15.132;2023-07-31T06:15:39;20.00;99.90
20929;DHT22;21895;47.072;15.132;2023-07-31T06:18:06;20.30;99.90
20929;DHT22;21895;47.072;15.132;2023-07-31T06:20:34;20.50;99.90
20929;DHT22;21895;47.072;15.132;2023-07-31T06:23:01;20.60;99.90
20929;DHT22;21895;47.072;15.132;2023-07-31T06:25:27;20.90;99.90
20929;DHT22;21895;47.072;15.132;2023-07-31T06:27:54;21.20;99.90
20929;DHT22;21895;47.072;15.132;2023-07-31T06:30:20;21.30;99.90
20929;DHT22;21895;47.072;15.132;2023-07-31T06:32:47;21.30;99.90
20929;DHT22;21895;47.072;15.132;2023-07-31T06:35:14;21.10;99.90
20929;DHT22;21895;47.072;15.132;2023-07-31T06:37:40;21.10;99.90
20929;DHT22;21895;47.072;15.132;2023-07-31T06:40:10;21.10;99.90
20929;DHT22;21895;47.072;15.132;2023-07-31T06:42:37;21.20;99.90
20929;DHT22;21895;47.072;15.132;2023-07-31T06:45:04;21.30;99.90
20929;DHT22;21895;47.072;15.132;2023-07-31T06:47:31;21.40;99.90
20929;DHT22;21895;47.072;15.132;2023-07-31T06:49:58;21.40;99.90
20929;DHT22;21895;47.072;15.132;2023-07-31T06:52:24;21.50;99.90
20929;DHT22;21895;47.072;15.132;2023-07-31T06:55:51;21.70;99.90
20929;DHT22;21895;47.072;15.132;2023-07-31T06:58:18;21.60;99.90
20929;DHT22;21895;47.072;15.132;2023-07-31T07:00:44;21.60;99.90
20929;DHT22;21895;47.072;15.132;2023-07-31T07:03:11;21.70;99.90
20929;DHT22;21895;47.072;15.132;2023-07-31T07:05:40;21.70;99.90
20929;DHT22;21895;47.072;15.132;2023-07-31T07:08:08;21.90;99.90
20929;DHT22;21895;47.072;15.132;2023-07-31T07:10:34;22.20;99.90
20929;DHT22;21895;47.072;15.132;2023-07-31T07:13:01;22.40;99.90
20929;DHT22;21895;47.072;15.132;2023-07-31T07:15:27;22.70;99.90
20929;DHT22;21895;47.072;15.132;2023-07-31T07:17:54;22.70;99.90
20929;DHT22;21895;47.072;15.132;2023-07-31T07:20:21;22.80;99.90
20929;DHT22;21895;47.072;15.132;2023-07-31T07:22:48;22.90;99.90
20929;DHT22;21895;47.072;15.132;2023-07-31T07:25:14;23.00;99.90
20929;DHT22;21895;47.072;15.132;2023-07-31T07:27:41;23.10;99.90
20929;DHT22;21895;47.072;15.132;2023-07-31T07:30:08;23.00;99.90
20929;DHT22;21895;47.072;15.132;2023-07-31T07:32:35;23.10;99.90
20929;DHT22;21895;47.072;15.132;2023-07-31T07:35:02;23.10;99.90
20929;DHT22;21895;47.072;15.132;2023-07-31T07:37:29;23.20;99.90
20929;DHT22;21895;47.072;15.132;2023-07-31T07:39:55;23.30;99.90
20929;DHT22;21895;47.072;15.132;2023-07-31T07:42:23;23.60;99.90
20929;DHT22;21895;47.072;15.132;2023-07-31T07:44:50;23.60;99.90
20929;DHT22;21895;47.072;15.132;2023-07-31T07:47:16;23.40;99.90
20929;DHT22;21895;47.072;15.132;2023-07-31T07:49:43;23.40;99.90
20929;DHT22;21895;47.072;15.132;2023-07-31T07:52:16;23.40;99.90
20929;DHT22;21895;47.072;15.132;2023-07-31T07:54:43;23.40;99.90
20929;DHT22;21895;47.072;15.132;2023-07-31T07:57:09;23.50;99.90
20929;DHT22;21895;47.072;15.132;2023-07-31T07:59:36;23.50;99.90
20929;DHT22;21895;47.072;15.132;2023-07-31T08:02:02;23.50;99.90
20929;DHT22;21895;47.072;15.132;2023-07-31T08:04:29;23.40;99.90
20929;DHT22;21895;47.072;15.132;2023-07-31T08:06:56;23.60;99.90
20929;DHT22;21895;47.072;15.132;2023-07-31T08:09:22;23.90;99.90
20929;DHT22;21895;47.072;15.132;2023-07-31T08:11:49;24.00;99.90
20929;DHT22;21895;47.072;15.132;2023-07-31T08:14:15;24.30;99.90
20929;DHT22;21895;47.072;15.132;2023-07-31T08:16:42;24.70;98.90
20929;DHT22;21895;47.072;15.132;2023-07-31T08:19:09;24.90;98.60
20929;DHT22;21895;47.072;15.132;2023-07-31T08:21:36;25.10;97.00
20929;DHT22;21895;47.072;15.132;2023-07-31T08:24:03;25.30;97.90
20929;DHT22;21895;47.072;15.132;2023-07-31T08:26:29;25.50;96.10
20929;DHT22;21895;47.072;15.132;2023-07-31T08:28:59;25.70;95.70
20929;DHT22;21895;47.072;15.132;2023-07-31T08:31:27;25.90;94.10
20929;DHT22;21895;47.072;15.132;2023-07-31T08:33:57;25.80;94.80
20929;DHT22;21895;47.072;15.132;2023-07-31T08:36:37;25.80;94.10
20929;DHT22;21895;47.072;15.132;2023-07-31T08:39:10;25.70;94.20
20929;DHT22;21895;47.072;15.132;2023-07-31T08:41:41;25.60;94.40
20929;DHT22;21895;47.072;15.132;2023-07-31T08:44:10;25.60;95.20
20929;DHT22;21895;47.072;15.132;2023-07-31T08:46:43;25.80;95.30
20929;DHT22;21895;47.072;15.132;2023-07-31T08:49:14;25.80;95.00
20929;DHT22;21895;47.072;15.132;2023-07-31T08:51:42;26.00;95.40
20929;DHT22;21895;47.072;15.132;2023-07-31T08:54:11;26.10;93.50
20929;DHT22;21895;47.072;15.132;2023-07-31T08:56:39;26.20;94.70
20929;DHT22;21895;47.072;15.132;2023-07-31T08:59:07;26.20;95.70
20929;DHT22;21895;47.072;15.132;2023-07-31T09:01:42;26.30;95.30
20929;DHT22;21895;47.072;15.132;2023-07-31T09:04:16;26.30;95.10
20929;DHT22;21895;47.072;15.132;2023-07-31T09:06:45;26.30;95.10
20929;DHT22;21895;47.072;15.132;2023-07-31T09:09:14;26.50;95.30
20929;DHT22;21895;47.072;15.132;2023-07-31T09:11:41;26.40;94.40
20929;DHT22;21895;47.072;15.132;2023-07-31T09:14:08;26.20;96.20
20929;DHT22;21895;47.072;15.132;2023-07-31T09:16:43;26.20;95.60
20929;DHT22;21895;47.072;15.132;2023-07-31T09:19:33;26.30;95.70
20929;DHT22;21895;47.072;15.132;2023-07-31T09:22:04;26.50;96.20
20929;DHT22;21895;47.072;15.132;2023-07-31T09:24:33;26.70;96.60
20929;DHT22;21895;47.072;15.132;2023-07-31T09:27:02;26.70;95.30
20929;DHT22;21895;47.072;15.132;2023-07-31T09:29:32;26.80;95.70
20929;DHT22;21895;47.072;15.132;2023-07-31T09:31:58;26.50;95.60
20929;DHT22;21895;47.072;15.132;2023-07-31T09:34:37;26.60;96.00
20929;DHT22;21895;47.072;15.132;2023-07-31T09:37:05;26.50;95.60
20929;DHT22;21895;47.072;15.132;2023-07-31T09:39:32;26.40;95.80
20929;DHT22;21895;47.072;15.132;2023-07-31T09:42:25;26.30;95.90
20929;DHT22;21895;47.072;15.132;2023-07-31T09:44:52;26.20;96.80
20929;DHT22;21895;47.072;15.132;2023-07-31T09:47:25;26.30;95.60
20929;DHT22;21895;47.072;15.132;2023-07-31T09:49:53;26.20;96.10
20929;DHT22;21895;47.072;15.132;2023-07-31T09:52:19;26.30;96.70
20929;DHT22;21895;47.072;15.132;2023-07-31T09:54:49;26.40;96.20
20929;DHT22;21895;47.072;15.132;2023-07-31T09:57:17;26.70;96.50
20929;DHT22;21895;47.072;15.132;2023-07-31T09:59:47;26.90;95.90
20929;DHT22;21895;47.072;15.132;2023-07-31T10:02:21;27.20;95.60
20929;DHT22;21895;47.072;15.132;2023-07-31T10:04:55;27.20;95.10
20929;DHT22;21895;47.072;15.132;2023-07-31T10:07:25;27.00;95.70
20929;DHT22;21895;47.072;15.132;2023-07-31T10:09:55;27.10;95.40
20929;DHT22;21895;47.072;15.132;2023-07-31T10:12:27;27.30;94.10
20929;DHT22;21895;47.072;15.132;2023-07-31T10:14:55;27.30;94.20
20929;DHT22;21895;47.072;15.132;2023-07-31T10:17:23;27.30;94.60
20929;DHT22;21895;47.072;15.132;2023-07-31T10:19:51;27.40;93.40
20929;DHT22;21895;47.072;15.132;2023-07-31T10:22:20;27.50;94.20
20929;DHT22;21895;47.072;15.132;2023-07-31T10:24:48;27.60;94.10
20929;DHT22;21895;47.072;15.132;2023-07-31T10:27:18;27.60;94.60
20929;DHT22;21895;47.072;15.132;2023-07-31T10:29:45;27.40;93.90
20929;DHT22;21895;47.072;15.132;2023-07-31T10:32:15;27.30;94.70
20929;DHT22;21895;47.072;15.132;2023-07-31T10:34:43;27.30;92.40
20929;DHT22;21895;47.072;15.132;2023-07-31T10:37:36;27.20;95.10
20929;DHT22;21895;47.072;15.132;2023-07-31T10:40:18;27.10;96.20
20929;DHT22;21895;47.072;15.132;2023-07-31T10:42:54;27.60;97.00
20929;DHT22;21895;47.072;15.132;2023-07-31T10:45:37;27.70;95.40
20929;DHT22;21895;47.072;15.132;2023-07-31T10:48:15;27.70;95.60
20929;DHT22;21895;47.072;15.132;2023-07-31T10:50:56;27.70;96.10
20929;DHT22;21895;47.072;15.132;2023-07-31T10:53:24;27.90;95.00
20929;DHT22;21895;47.072;15.132;2023-07-31T10:56:08;27.90;94.20
20929;DHT22;21895;47.072;15.132;2023-07-31T10:58:40;27.90;95.60
20929;DHT22;21895;47.072;15.132;2023-07-31T11:01:10;27.90;95.80
20929;DHT22;21895;47.072;15.132;2023-07-31T11:03:48;27.80;95.50
20929;DHT22;21895;47.072;15.132;2023-07-31T11:06:18;27.70;95.50
20929;DHT22;21895;47.072;15.132;2023-07-31T11:08:50;27.40;96.40
20929;DHT22;21895;47.072;15.132;2023-07-31T11:11:20;27.00;96.60
20929;DHT22;21895;47.072;15.132;2023-07-31T11:13:51;26.80;95.70
20929;DHT22;21895;47.072;15.132;2023-07-31T11:16:20;26.80;95.80
20929;DHT22;21895;47.072;15.132;2023-07-31T11:18:52;26.80;96.20
20929;DHT22;21895;47.072;15.132;2023-07-31T11:21:23;26.90;96.80
20929;DHT22;21895;47.072;15.132;2023-07-31T11:23:53;27.20;95.80
20929;DHT22;21895;47.072;15.132;2023-07-31T11:26:26;27.40;95.10
20929;DHT22;21895;47.072;15.132;2023-07-31T11:28:53;27.40;94.70
20929;DHT22;21895;47.072;15.132;2023-07-31T11:31:20;27.40;94.40
20929;DHT22;21895;47.072;15.132;2023-07-31T11:33:48;27.50;95.10
20929;DHT22;21895;47.072;15.132;2023-07-31T11:36:19;27.70;95.40
20929;DHT22;21895;47.072;15.132;2023-07-31T11:38:47;27.90;95.20
20929;DHT22;21895;47.072;15.132;2023-07-31T11:41:15;28.00;95.70
20929;DHT22;21895;47.072;15.132;2023-07-31T11:43:46;27.90;94.90
20929;DHT22;21895;47.072;15.132;2023-07-31T11:46:13;28.00;95.20
20929;DHT22;21895;47.072;15.132;2023-07-31T11:48:41;28.10;93.90
20929;DHT22;21895;47.072;15.132;2023-07-31T11:51:09;28.10;94.70
20929;DHT22;21895;47.072;15.132;2023-07-31T11:54:11;27.90;95.10
20929;DHT22;21895;47.072;15.132;2023-07-31T11:56:39;27.50;95.20
20929;DHT22;21895;47.072;15.132;2023-07-31T11:59:07;27.10;95.70
20929;DHT22;21895;47.072;15.132;2023-07-31T12:01:34;26.90;95.90
20929;DHT22;21895;47.072;15.132;2023-07-31T12:04:01;26.80;95.60
20929;DHT22;21895;47.072;15.132;2023-07-31T12:06:35;26.80;95.80
20929;DHT22;21895;47.072;15.132;2023-07-31T12:09:04;27.00;95.60
20929;DHT22;21895;47.072;15.132;2023-07-31T12:11:31;27.30;95.30
20929;DHT22;21895;47.072;15.132;2023-07-31T12:13:58;27.60;96.00
20929;DHT22;21895;47.072;15.132;2023-07-31T12:16:26;27.90;95.80
20929;DHT22;21895;47.072;15.132;2023-07-31T12:18:55;28.20;94.90
20929;DHT22;21895;47.072;15.132;2023-07-31T12:21:21;28.10;95.20
20929;DHT22;21895;47.072;15.132;2023-07-31T12:23:48;28.00;95.60
20929;DHT22;21895;47.072;15.132;2023-07-31T12:26:16;27.90;96.00
20929;DHT22;21895;47.072;15.132;2023-07-31T12:28:48;27.60;96.10
20929;DHT22;21895;47.072;15.132;2023-07-31T12:31:17;27.60;96.30
20929;DHT22;21895;47.072;15.132;2023-07-31T12:33:48;27.50;95.90
20929;DHT22;21895;47.072;15.132;2023-07-31T12:36:20;27.40;96.60
20929;DHT22;21895;47.072;15.132;2023-07-31T12:38:50;27.40;95.90
20929;DHT22;21895;47.072;15.132;2023-07-31T12:41:17;27.40;96.80
20929;DHT22;21895;47.072;15.132;2023-07-31T12:43:45;27.50;96.40
20929;DHT22;21895;47.072;15.132;2023-07-31T12:46:12;27.60;96.30
20929;DHT22;21895;47.072;15.132;2023-07-31T12:48:39;27.50;96.20
20929;DHT22;21895;47.072;15.132;2023-07-31T12:51:06;27.70;96.60
20929;DHT22;21895;47.072;15.132;2023-07-31T12:53:33;28.00;95.00
20929;DHT22;21895;47.072;15.132;2023-07-31T12:56:01;28.20;95.30
20929;DHT22;21895;47.072;15.132;2023-07-31T12:58:28;28.30;94.60
20929;DHT22;21895;47.072;15.132;2023-07-31T13:00:55;28.30;95.00
20929;DHT22;21895;47.072;15.132;2023-07-31T13:03:21;28.60;95.30
20929;DHT22;21895;47.072;15.132;2023-07-31T13:05:48;28.70;94.70
20929;DHT22;21895;47.072;15.132;2023-07-31T13:08:15;28.70;93.50
20929;DHT22;21895;47.072;15.132;2023-07-31T13:10:43;28.60;93.80
20929;DHT22;21895;47.072;15.132;2023-07-31T13:13:10;28.30;93.70
20929;DHT22;21895;47.072;15.132;2023-07-31T13:15:37;28.10;94.10
20929;DHT22;21895;47.072;15.132;2023-07-31T13:18:04;27.70;95.10
20929;DHT22;21895;47.072;15.132;2023-07-31T13:20:30;27.30;95.30
20929;DHT22;21895;47.072;15.132;2023-07-31T13:22:57;27.00;96.00
20929;DHT22;21895;47.072;15.132;2023-07-31T13:25:26;26.80;96.50
20929;DHT22;21895;47.072;15.132;2023-07-31T13:27:53;26.50;96.30
20929;DHT22;21895;47.072;15.132;2023-07-31T13:30:21;26.30;97.40
20929;DHT22;21895;47.072;15.132;2023-07-31T13:32:48;26.40;97.10
20929;DHT22;21895;47.072;15.132;2023-07-31T13:35:14;26.40;97.60
20929;DHT22;21895;47.072;15.132;2023-07-31T13:37:41;26.50;97.30
20929;DHT22;21895;47.072;15.132;2023-07-31T13:40:08;26.60;96.70
20929;DHT22;21895;47.072;15.132;2023-07-31T13:42:35;26.60;97.10
20929;DHT22;21895;47.072;15.132;2023-07-31T13:45:02;26.60;97.00
20929;DHT22;21895;47.072;15.132;2023-07-31T13:47:33;26.50;97.50
20929;DHT22;21895;47.072;15.132;2023-07-31T13:50:00;26.60;97.10
20929;DHT22;21895;47.072;15.132;2023-07-31T13:52:27;26.70;97.50
20929;DHT22;21895;47.072;15.132;2023-07-31T13:54:53;26.80;97.70
20929;DHT22;21895;47.072;15.132;2023-07-31T13:57:20;27.00;97.40
20929;DHT22;21895;47.072;15.132;2023-07-31T13:59:46;27.20;97.20
20929;DHT22;21895;47.072;15.132;2023-07-31T14:02:13;27.30;96.60
20929;DHT22;21895;47.072;15.132;2023-07-31T14:04:41;27.40;96.10
20929;DHT22;21895;47.072;15.132;2023-07-31T14:07:07;27.40;95.40
20929;DHT22;21895;47.072;15.132;2023-07-31T14:09:34;27.40;95.70
20929;DHT22;21895;47.072;15.132;2023-07-31T14:12:01;27.40;96.00
20929;DHT22;21895;47.072;15.132;2023-07-31T14:14:27;27.50;95.40
20929;DHT22;21895;47.072;15.132;2023-07-31T14:16:54;27.50;96.00
20929;DHT22;21895;47.072;15.132;2023-07-31T14:19:21;27.70;95.90
20929;DHT22;21895;47.072;15.132;2023-07-31T14:21:48;27.70;95.50
20929;DHT22;21895;47.072;15.132;2023-07-31T14:24:26;27.80;95.60
20929;DHT22;21895;47.072;15.132;2023-07-31T14:26:53;27.90;95.50
20929;DHT22;21895;47.072;15.132;2023-07-31T14:29:20;27.90;95.00
20929;DHT22;21895;47.072;15.132;2023-07-31T14:31:46;27.90;95.30
20929;DHT22;21895;47.072;15.132;2023-07-31T14:34:13;27.80;95.40
20929;DHT22;21895;47.072;15.132;2023-07-31T14:36:39;27.80;95.80
20929;DHT22;21895;47.072;15.132;2023-07-31T14:39:06;27.80;96.10
20929;DHT22;21895;47.072;15.132;2023-07-31T14:41:33;27.80;95.30
20929;DHT22;21895;47.072;15.132;2023-07-31T14:43:59;27.80;96.30
20929;DHT22;21895;47.072;15.132;2023-07-31T14:46:26;27.80;95.80
20929;DHT22;21895;47.072;15.132;2023-07-31T14:48:52;27.80;94.80
20929;DHT22;21895;47.072;15.132;2023-07-31T14:51:19;27.80;95.50
20929;DHT22;21895;47.072;15.132;2023-07-31T14:53:46;27.80;95.20
20929;DHT22;21895;47.072;15.132;2023-07-31T14:56:13;27.80;95.90
20929;DHT22;21895;47.072;15.132;2023-07-31T14:58:39;27.70;95.70
20929;DHT22;21895;47.072;15.132;2023-07-31T15:01:06;27.60;95.80
20929;DHT22;21895;47.072;15.132;2023-07-31T15:03:33;27.40;95.80
20929;DHT22;21895;47.072;15.132;2023-07-31T15:05:59;27.20;96.00
20929;DHT22;21895;47.072;15.132;2023-07-31T15:08:26;27.10;95.70
20929;DHT22;21895;47.072;15.132;2023-07-31T15:10:54;27.10;95.90
20929;DHT22;21895;47.072;15.132;2023-07-31T15:13:24;27.00;96.50
20929;DHT22;21895;47.072;15.132;2023-07-31T15:15:50;26.90;96.50
20929;DHT22;21895;47.072;15.132;2023-07-31T15:18:17;26.70;96.90
20929;DHT22;21895;47.072;15.132;2023-07-31T15:20:43;26.50;97.00
20929;DHT22;21895;47.072;15.132;2023-07-31T15:23:10;26.50;96.70
20929;DHT22;21895;47.072;15.132;2023-07-31T15:25:37;26.40;96.90
20929;DHT22;21895;47.072;15.132;2023-07-31T15:28:03;26.40;97.20